sensor_id;sensor_type;location;lat;lon;timestamp;temperature;humidity
47414;DHT22;33163;0.000;0.000;2023-04-25T00:01:45;18.60;55.70
47414;DHT22;33163;0.000;0.000;2023-04-25T00:04:13;18.60;55.60
47414;DHT22;33163;0.000;0.000;2023-04-25T00:06:39;18.60;55.60
47414;DHT22;33163;0.000;0.000;2023-04-25T00:09:06;18.50;55.60
47414;DHT22;33163;0.000;0.000;2023-04-25T00:11:35;18.50;55.60
47414;DHT22;33163;0.000;0.000;2023-04-25T00:14:02;18.50;55.50
47414;DHT22;33163;0.000;0.000;2023-04-25T00:16:29;18.50;55.50
47414;DHT22;33163;0.000;0.000;2023-04-25T00:18:59;18.50;55.50
47414;DHT22;33163;0.000;0.000;2023-04-25T00:21:28;18.50;55.40
47414;DHT22;33163;0.000;0.000;2023-04-25T00:23:57;18.50;55.30
47414;DHT22;33163;0.000;0.000;2023-04-25T00:26:23;18.50;55.40
47414;DHT22;33163;0.000;0.000;2023-04-25T00:28:50;18.50;55.40
47414;DHT22;33163;0.000;0.000;2023-04-25T00:31:17;18.50;55.40
47414;DHT22;33163;0.000;0.000;2023-04-25T00:33:44;18.50;55.40
47414;DHT22;33163;0.000;0.000;2023-04-25T00:36:10;18.50;55.30
47414;DHT22;33163;0.000;0.000;2023-04-25T00:38:39;18.50;55.30
47414;DHT22;33163;0.000;0.000;2023-04-25T00:41:06;18.50;55.30
47414;DHT22;33163;0.000;0.000;2023-04-25T00:43:34;18.50;55.20
47414;DHT22;33163;0.000;0.000;2023-04-25T00:46:02;18.40;55.10
47414;DHT22;33163;0.000;0.000;2023-04-25T00:48:29;18.50;55.20
47414;DHT22;33163;0.000;0.000;2023-04-25T00:50:58;18.40;55.10
47414;DHT22;33163;0.000;0.000;2023-04-25T00:53:27;18.40;55.10
47414;DHT22;33163;0.000;0.000;2023-04-25T00:55:55;18.40;55.10
47414;DHT22;33163;0.000;0.000;2023-04-25T00:58:22;18.40;55.10
47414;DHT22;33163;0.000;0.000;2023-04-25T01:00:50;18.40;55.00
47414;DHT22;33163;0.000;0.000;2023-04-25T01:03:18;18.40;55.00
47414;DHT22;33163;0.000;0.000;2023-04-25T01:05:46;18.40;55.00
47414;DHT22;33163;0.000;0.000;2023-04-25T01:08:13;18.40;55.00
47414;DHT22;33163;0.000;0.000;2023-04-25T01:10:40;18.40;54.90
47414;DHT22;33163;0.000;0.000;2023-04-25T01:13:08;18.40;54.90
47414;DHT22;33163;0.000;0.000;2023-04-25T01:15:35;18.40;54.90
47414;DHT22;33163;0.000;0.000;2023-04-25T01:18:03;18.40;54.80
47414;DHT22;33163;0.000;0.000;2023-04-25T01:20:32;18.40;54.80
47414;DHT22;33163;0.000;0.000;2023-04-25T01:23:00;18.40;54.80
47414;DHT22;33163;0.000;0.000;2023-04-25T01:25:28;18.40;54.80
47414;DHT22;33163;0.000;0.000;2023-04-25T01:27:56;18.40;54.70
47414;DHT22;33163;0.000;0.000;2023-04-25T01:30:23;18.40;54.70
47414;DHT22;33163;0.000;0.000;2023-04-25T01:32:50;18.40;54.60
47414;DHT22;33163;0.000;0.000;2023-04-25T01:35:17;18.30;54.50
47414;DHT22;33163;0.000;0.000;2023-04-25T01:37:45;18.40;54.60
47414;DHT22;33163;0.000;0.000;2023-04-25T01:40:13;18.40;54.50
47414;DHT22;33163;0.000;0.000;2023-04-25T01:42:42;18.40;54.40
47414;DHT22;33163;0.000;0.000;2023-04-25T01:45:10;18.30;54.30
47414;DHT22;33163;0.000;0.000;2023-04-25T01:47:37;18.30;54.30
47414;DHT22;33163;0.000;0.000;2023-04-25T01:50:07;18.30;54.30
47414;DHT22;33163;0.000;0.000;2023-04-25T01:52:34;18.30;54.20
47414;DHT22;33163;0.000;0.000;2023-04-25T01:55:01;18.30;54.20
47414;DHT22;33163;0.000;0.000;2023-04-25T01:57:29;18.30;54.20
47414;DHT22;33163;0.000;0.000;2023-04-25T01:59:59;18.30;54.20
47414;DHT22;33163;0.000;0.000;2023-04-25T02:02:26;18.30;54.10
47414;DHT22;33163;0.000;0.000;2023-04-25T02:04:52;18.30;54.10
47414;DHT22;33163;0.000;0.000;2023-04-25T02:07:20;18.30;54.10
47414;DHT22;33163;0.000;0.000;2023-04-25T02:09:46;18.30;54.10
47414;DHT22;33163;0.000;0.000;2023-04-25T02:12:13;18.30;54.00
47414;DHT22;33163;0.000;0.000;2023-04-25T02:14:41;18.30;54.00
47414;DHT22;33163;0.000;0.000;2023-04-25T02:17:08;18.30;54.00
47414;DHT22;33163;0.000;0.000;2023-04-25T02:19:35;18.30;54.00
47414;DHT22;33163;0.000;0.000;2023-04-25T02:22:02;18.20;54.00
47414;DHT22;33163;0.000;0.000;2023-04-25T02:24:29;18.30;54.00
47414;DHT22;33163;0.000;0.000;2023-04-25T02:26:55;18.30;54.00
47414;DHT22;33163;0.000;0.000;2023-04-25T02:29:22;18.20;54.00
47414;DHT22;33163;0.000;0.000;2023-04-25T02:31:50;18.20;54.60
47414;DHT22;33163;0.000;0.000;2023-04-25T02:34:17;18.20;54.00
47414;DHT22;33163;0.000;0.000;2023-04-25T02:36:44;18.20;54.00
47414;DHT22;33163;0.000;0.000;2023-04-25T02:39:10;18.20;54.00
47414;DHT22;33163;0.000;0.000;2023-04-25T02:41:37;18.20;54.00
47414;DHT22;33163;0.000;0.000;2023-04-25T02:44:04;18.20;54.00
47414;DHT22;33163;0.000;0.000;2023-04-25T02:46:30;18.20;54.00
47414;DHT22;33163;0.000;0.000;2023-04-25T02:48:59;18.20;54.00
47414;DHT22;33163;0.000;0.000;2023-04-25T02:51:25;18.20;54.00
47414;DHT22;33163;0.000;0.000;2023-04-25T02:53:52;18.20;54.00
47414;DHT22;33163;0.000;0.000;2023-04-25T02:56:19;18.20;54.00
47414;DHT22;33163;0.000;0.000;2023-04-25T02:58:46;18.20;54.00
47414;DHT22;33163;0.000;0.000;2023-04-25T03:01:12;18.20;54.00
47414;DHT22;33163;0.000;0.000;2023-04-25T03:03:39;18.20;54.00
47414;DHT22;33163;0.000;0.000;2023-04-25T03:06:07;18.20;54.00
47414;DHT22;33163;0.000;0.000;2023-04-25T03:08:34;18.20;54.00
47414;DHT22;33163;0.000;0.000;2023-04-25T03:11:01;18.20;54.00
47414;DHT22;33163;0.000;0.000;2023-04-25T03:13:27;18.20;54.00
47414;DHT22;33163;0.000;0.000;2023-04-25T03:15:55;18.20;54.00
47414;DHT22;33163;0.000;0.000;2023-04-25T03:18:22;18.20;54.00
47414;DHT22;33163;0.000;0.000;2023-04-25T03:20:49;18.20;54.00
47414;DHT22;33163;0.000;0.000;2023-04-25T03:23:17;18.20;54.00
47414;DHT22;33163;0.000;0.000;2023-04-25T03:25:43;18.20;54.00
47414;DHT22;33163;0.000;0.000;2023-04-25T03:28:10;18.20;54.00
47414;DHT22;33163;0.000;0.000;2023-04-25T03:30:37;18.10;53.90
47414;DHT22;33163;0.000;0.000;2023-04-25T03:33:04;18.10;53.90
47414;DHT22;33163;0.000;0.000;2023-04-25T03:35:30;18.10;53.90
47414;DHT22;33163;0.000;0.000;2023-04-25T03:37:57;18.10;53.90
47414;DHT22;33163;0.000;0.000;2023-04-25T03:40:25;18.10;53.90
47414;DHT22;33163;0.000;0.000;2023-04-25T03:42:52;18.10;53.90
47414;DHT22;33163;0.000;0.000;2023-04-25T03:45:19;18.10;53.90
47414;DHT22;33163;0.000;0.000;2023-04-25T03:47:45;18.10;53.90
47414;DHT22;33163;0.000;0.000;2023-04-25T03:50:12;18.10;53.80
47414;DHT22;33163;0.000;0.000;2023-04-25T03:52:39;18.10;53.90
47414;DHT22;33163;0.000;0.000;2023-04-25T03:55:06;18.10;53.80
47414;DHT22;33163;0.000;0.000;2023-04-25T03:57:34;18.10;53.80
47414;DHT22;33163;0.000;0.000;2023-04-25T04:00:02;18.10;53.90
47414;DHT22;33163;0.000;0.000;2023-04-25T04:02:30;18.10;53.80
47414;DHT22;33163;0.000;0.000;2023-04-25T04:04:56;18.10;53.80
47414;DHT22;33163;0.000;0.000;2023-04-25T04:07:23;18.10;53.80
47414;DHT22;33163;0.000;0.000;2023-04-25T04:09:50;18.10;53.80
47414;DHT22;33163;0.000;0.000;2023-04-25T04:12:16;18.10;53.70
47414;DHT22;33163;0.000;0.000;2023-04-25T04:14:45;18.10;53.80
47414;DHT22;33163;0.000;0.000;2023-04-25T04:17:11;18.10;53.70
47414;DHT22;33163;0.000;0.000;2023-04-25T04:19:38;18.10;53.70
47414;DHT22;33163;0.000;0.000;2023-04-25T04:22:05;18.10;53.70
47414;DHT22;33163;0.000;0.000;2023-04-25T04:24:31;18.00;53.60
47414;DHT22;33163;0.000;0.000;2023-04-25T04:26:58;18.10;53.70
47414;DHT22;33163;0.000;0.000;2023-04-25T04:29:25;18.10;53.70
47414;DHT22;33163;0.000;0.000;2023-04-25T04:31:54;18.00;53.60
47414;DHT22;33163;0.000;0.000;2023-04-25T04:34:20;18.00;53.60
47414;DHT22;33163;0.000;0.000;2023-04-25T04:36:47;18.00;53.60
47414;DHT22;33163;0.000;0.000;2023-04-25T04:39:15;18.00;53.50
47414;DHT22;33163;0.000;0.000;2023-04-25T04:41:42;18.00;53.50
47414;DHT22;33163;0.000;0.000;2023-04-25T04:44:09;18.00;53.50
47414;DHT22;33163;0.000;0.000;2023-04-25T04:46:36;18.00;53.50
47414;DHT22;33163;0.000;0.000;2023-04-25T04:49:09;18.00;53.40
47414;DHT22;33163;0.000;0.000;2023-04-25T04:51:35;18.00;53.40
47414;DHT22;33163;0.000;0.000;2023-04-25T04:54:03;18.00;53.40
47414;DHT22;33163;0.000;0.000;2023-04-25T04:56:30;18.00;53.40
47414;DHT22;33163;0.000;0.000;2023-04-25T04:58:58;18.00;53.40
47414;DHT22;33163;0.000;0.000;2023-04-25T05:01:25;18.00;53.40
47414;DHT22;33163;0.000;0.000;2023-04-25T05:03:52;18.00;53.40
47414;DHT22;33163;0.000;0.000;2023-04-25T05:06:20;18.00;53.30
47414;DHT22;33163;0.000;0.000;2023-04-25T05:08:47;18.00;53.30
47414;DHT22;33163;0.000;0.000;2023-04-25T05:11:14;18.00;53.30
47414;DHT22;33163;0.000;0.000;2023-04-25T05:13:41;18.00;53.30
47414;DHT22;33163;0.000;0.000;2023-04-25T05:16:07;18.00;53.30
47414;DHT22;33163;0.000;0.000;2023-04-25T05:18:34;17.90;53.20
47414;DHT22;33163;0.000;0.000;2023-04-25T05:21:01;17.90;53.30
47414;DHT22;33163;0.000;0.000;2023-04-25T05:23:30;17.90;54.00
47414;DHT22;33163;0.000;0.000;2023-04-25T05:25:57;17.90;53.30
47414;DHT22;33163;0.000;0.000;2023-04-25T05:28:23;17.90;53.30
47414;DHT22;33163;0.000;0.000;2023-04-25T05:30:50;17.90;53.60
47414;DHT22;33163;0.000;0.000;2023-04-25T05:33:18;17.90;53.80
47414;DHT22;33163;0.000;0.000;2023-04-25T05:35:45;17.90;53.80
47414;DHT22;33163;0.000;0.000;2023-04-25T05:38:12;17.90;54.00
47414;DHT22;33163;0.000;0.000;2023-04-25T05:40:40;17.90;54.20
47414;DHT22;33163;0.000;0.000;2023-04-25T05:43:06;17.90;54.50
47414;DHT22;33163;0.000;0.000;2023-04-25T05:45:33;17.90;54.70
47414;DHT22;33163;0.000;0.000;2023-04-25T05:48:00;17.90;54.70
47414;DHT22;33163;0.000;0.000;2023-04-25T05:50:27;17.90;54.60
47414;DHT22;33163;0.000;0.000;2023-04-25T05:52:53;17.90;54.60
47414;DHT22;33163;0.000;0.000;2023-04-25T05:55:20;17.90;54.80
47414;DHT22;33163;0.000;0.000;2023-04-25T05:57:48;18.00;54.90
47414;DHT22;33163;0.000;0.000;2023-04-25T06:00:15;17.90;54.90
47414;DHT22;33163;0.000;0.000;2023-04-25T06:02:42;18.00;54.90
47414;DHT22;33163;0.000;0.000;2023-04-25T06:05:09;18.00;54.90
47414;DHT22;33163;0.000;0.000;2023-04-25T06:07:36;17.90;54.90
47414;DHT22;33163;0.000;0.000;2023-04-25T06:10:03;17.90;54.90
47414;DHT22;33163;0.000;0.000;2023-04-25T06:12:31;17.90;54.90
47414;DHT22;33163;0.000;0.000;2023-04-25T06:15:00;17.90;55.00
47414;DHT22;33163;0.000;0.000;2023-04-25T06:17:27;17.90;55.00
47414;DHT22;33163;0.000;0.000;2023-04-25T06:19:54;17.90;55.00
47414;DHT22;33163;0.000;0.000;2023-04-25T06:22:20;17.90;54.80
47414;DHT22;33163;0.000;0.000;2023-04-25T06:24:47;17.90;54.80
47414;DHT22;33163;0.000;0.000;2023-04-25T06:27:14;17.90;54.70
47414;DHT22;33163;0.000;0.000;2023-04-25T06:29:40;17.90;54.70
47414;DHT22;33163;0.000;0.000;2023-04-25T06:32:09;17.90;54.70
47414;DHT22;33163;0.000;0.000;2023-04-25T06:34:35;17.90;54.40
47414;DHT22;33163;0.000;0.000;2023-04-25T06:37:02;17.90;54.40
47414;DHT22;33163;0.000;0.000;2023-04-25T06:39:29;17.90;54.50
47414;DHT22;33163;0.000;0.000;2023-04-25T06:41:55;17.90;54.30
47414;DHT22;33163;0.000;0.000;2023-04-25T06:44:22;17.90;54.50
47414;DHT22;33163;0.000;0.000;2023-04-25T06:46:51;17.90;54.40
47414;DHT22;33163;0.000;0.000;2023-04-25T06:49:19;17.90;54.50
47414;DHT22;33163;0.000;0.000;2023-04-25T06:51:46;17.90;54.50
47414;DHT22;33163;0.000;0.000;2023-04-25T06:54:13;17.90;54.90
47414;DHT22;33163;0.000;0.000;2023-04-25T06:56:40;17.90;54.70
47414;DHT22;33163;0.000;0.000;2023-04-25T06:59:06;18.00;54.60
47414;DHT22;33163;0.000;0.000;2023-04-25T07:01:33;18.00;54.70
47414;DHT22;33163;0.000;0.000;2023-04-25T07:04:00;18.00;54.70
47414;DHT22;33163;0.000;0.000;2023-04-25T07:06:28;18.00;54.50
47414;DHT22;33163;0.000;0.000;2023-04-25T07:08:56;18.00;54.30
47414;DHT22;33163;0.000;0.000;2023-04-25T07:11:23;18.10;54.40
47414;DHT22;33163;0.000;0.000;2023-04-25T07:13:50;18.10;54.30
47414;DHT22;33163;0.000;0.000;2023-04-25T07:16:17;18.10;54.20
47414;DHT22;33163;0.000;0.000;2023-04-25T07:18:44;18.20;54.10
47414;DHT22;33163;0.000;0.000;2023-04-25T07:21:11;18.10;54.10
47414;DHT22;33163;0.000;0.000;2023-04-25T07:23:39;18.10;54.30
47414;DHT22;33163;0.000;0.000;2023-04-25T07:26:06;18.10;54.40
47414;DHT22;33163;0.000;0.000;2023-04-25T07:28:33;18.10;54.50
47414;DHT22;33163;0.000;0.000;2023-04-25T07:31:00;18.00;54.30
47414;DHT22;33163;0.000;0.000;2023-04-25T07:33:27;18.00;54.50
47414;DHT22;33163;0.000;0.000;2023-04-25T07:35:53;18.00;54.50
47414;DHT22;33163;0.000;0.000;2023-04-25T07:38:21;18.10;54.60
47414;DHT22;33163;0.000;0.000;2023-04-25T07:40:49;18.10;54.30
47414;DHT22;33163;0.000;0.000;2023-04-25T07:43:16;18.10;54.20
47414;DHT22;33163;0.000;0.000;2023-04-25T07:45:43;18.10;54.00
47414;DHT22;33163;0.000;0.000;2023-04-25T07:48:10;18.10;54.00
47414;DHT22;33163;0.000;0.000;2023-04-25T07:50:36;18.20;54.20
47414;DHT22;33163;0.000;0.000;2023-04-25T07:53:03;18.20;54.10
47414;DHT22;33163;0.000;0.000;2023-04-25T07:55:30;18.10;53.90
47414;DHT22;33163;0.000;0.000;2023-04-25T07:57:58;18.10;54.00
47414;DHT22;33163;0.000;0.000;2023-04-25T08:00:25;18.10;53.90
47414;DHT22;33163;0.000;0.000;2023-04-25T08:02:51;18.10;54.10
47414;DHT22;33163;0.000;0.000;2023-04-25T08:05:18;18.10;54.10
47414;DHT22;33163;0.000;0.000;2023-04-25T08:07:45;18.10;54.00
47414;DHT22;33163;0.000;0.000;2023-04-25T08:10:12;18.20;53.80
47414;DHT22;33163;0.000;0.000;2023-04-25T08:12:38;18.20;53.60
47414;DHT22;33163;0.000;0.000;2023-04-25T08:15:08;18.20;53.60
47414;DHT22;33163;0.000;0.000;2023-04-25T08:17:35;18.20;53.40
47414;DHT22;33163;0.000;0.000;2023-04-25T08:20:02;18.20;53.30
47414;DHT22;33163;0.000;0.000;2023-04-25T08:22:30;18.30;53.10
47414;DHT22;33163;0.000;0.000;2023-04-25T08:24:57;18.30;52.80
47414;DHT22;33163;0.000;0.000;2023-04-25T08:27:24;18.40;52.70
47414;DHT22;33163;0.000;0.000;2023-04-25T08:29:51;18.40;52.60
47414;DHT22;33163;0.000;0.000;2023-04-25T08:32:19;18.40;52.70
47414;DHT22;33163;0.000;0.000;2023-04-25T08:34:47;18.50;52.80
47414;DHT22;33163;0.000;0.000;2023-04-25T08:37:14;18.50;52.80
47414;DHT22;33163;0.000;0.000;2023-04-25T08:39:41;18.50;52.90
47414;DHT22;33163;0.000;0.000;2023-04-25T08:42:08;18.50;52.90
47414;DHT22;33163;0.000;0.000;2023-04-25T08:44:35;18.50;53.00
47414;DHT22;33163;0.000;0.000;2023-04-25T08:47:03;18.50;52.90
47414;DHT22;33163;0.000;0.000;2023-04-25T08:49:33;18.50;52.90
47414;DHT22;33163;0.000;0.000;2023-04-25T08:52:02;18.50;53.10
47414;DHT22;33163;0.000;0.000;2023-04-25T08:54:30;18.50;53.00
47414;DHT22;33163;0.000;0.000;2023-04-25T08:56:59;18.50;53.00
47414;DHT22;33163;0.000;0.000;2023-04-25T08:59:28;18.50;52.80
47414;DHT22;33163;0.000;0.000;2023-04-25T09:01:55;18.60;52.90
47414;DHT22;33163;0.000;0.000;2023-04-25T09:04:21;18.60;52.80
47414;DHT22;33163;0.000;0.000;2023-04-25T09:06:50;18.70;52.80
47414;DHT22;33163;0.000;0.000;2023-04-25T09:09:16;18.70;52.70
47414;DHT22;33163;0.000;0.000;2023-04-25T09:11:43;18.80;52.70
47414;DHT22;33163;0.000;0.000;2023-04-25T09:14:11;18.80;52.70
47414;DHT22;33163;0.000;0.000;2023-04-25T09:17:02;18.90;52.60
47414;DHT22;33163;0.000;0.000;2023-04-25T09:19:31;19.00;52.60
47414;DHT22;33163;0.000;0.000;2023-04-25T09:22:00;19.00;52.60
47414;DHT22;33163;0.000;0.000;2023-04-25T09:24:35;19.00;52.60
47414;DHT22;33163;0.000;0.000;2023-04-25T09:27:06;19.10;52.70
47414;DHT22;33163;0.000;0.000;2023-04-25T09:29:35;19.10;52.70
47414;DHT22;33163;0.000;0.000;2023-04-25T09:32:14;19.20;52.70
47414;DHT22;33163;0.000;0.000;2023-04-25T09:34:42;19.10;52.60
47414;DHT22;33163;0.000;0.000;2023-04-25T09:37:11;19.20;52.60
47414;DHT22;33163;0.000;0.000;2023-04-25T09:39:38;19.20;52.70
47414;DHT22;33163;0.000;0.000;2023-04-25T09:42:06;19.20;52.50
47414;DHT22;33163;0.000;0.000;2023-04-25T09:44:32;19.30;52.60
47414;DHT22;33163;0.000;0.000;2023-04-25T09:46:59;19.20;52.40
47414;DHT22;33163;0.000;0.000;2023-04-25T09:49:28;19.20;52.40
47414;DHT22;33163;0.000;0.000;2023-04-25T09:51:55;19.30;52.50
47414;DHT22;33163;0.000;0.000;2023-04-25T09:54:24;19.30;52.50
47414;DHT22;33163;0.000;0.000;2023-04-25T09:56:52;19.40;52.60
47414;DHT22;33163;0.000;0.000;2023-04-25T09:59:20;19.30;52.40
47414;DHT22;33163;0.000;0.000;2023-04-25T10:01:49;19.30;52.40
47414;DHT22;33163;0.000;0.000;2023-04-25T10:04:20;19.30;52.40
47414;DHT22;33163;0.000;0.000;2023-04-25T10:06:48;19.30;52.30
47414;DHT22;33163;0.000;0.000;2023-04-25T10:09:16;19.30;52.50
47414;DHT22;33163;0.000;0.000;2023-04-25T10:11:47;19.30;52.30
47414;DHT22;33163;0.000;0.000;2023-04-25T10:14:14;19.40;52.40
47414;DHT22;33163;0.000;0.000;2023-04-25T10:16:42;19.50;52.40
47414;DHT22;33163;0.000;0.000;2023-04-25T10:19:09;19.50;52.30
47414;DHT22;33163;0.000;0.000;2023-04-25T10:21:40;19.50;52.30
47414;DHT22;33163;0.000;0.000;2023-04-25T10:24:11;19.50;52.10
47414;DHT22;33163;0.000;0.000;2023-04-25T10:26:38;19.50;52.00
47414;DHT22;33163;0.000;0.000;2023-04-25T10:29:06;19.50;52.00
47414;DHT22;33163;0.000;0.000;2023-04-25T10:31:33;19.40;51.80
47414;DHT22;33163;0.000;0.000;2023-04-25T10:34:10;19.40;52.00
47414;DHT22;33163;0.000;0.000;2023-04-25T10:36:37;19.50;52.30
47414;DHT22;33163;0.000;0.000;2023-04-25T10:39:05;19.50;52.20
47414;DHT22;33163;0.000;0.000;2023-04-25T10:41:45;19.60;52.20
47414;DHT22;33163;0.000;0.000;2023-04-25T10:44:14;19.60;52.10
47414;DHT22;33163;0.000;0.000;2023-04-25T10:46:41;19.60;51.80
47414;DHT22;33163;0.000;0.000;2023-04-25T10:49:10;19.60;51.80
47414;DHT22;33163;0.000;0.000;2023-04-25T10:51:45;19.60;51.80
47414;DHT22;33163;0.000;0.000;2023-04-25T10:54:12;19.60;51.90
47414;DHT22;33163;0.000;0.000;2023-04-25T10:56:40;19.60;51.80
47414;DHT22;33163;0.000;0.000;2023-04-25T10:59:11;19.60;51.80
47414;DHT22;33163;0.000;0.000;2023-04-25T11:01:41;19.60;51.80
47414;DHT22;33163;0.000;0.000;2023-04-25T11:04:20;19.60;52.00
47414;DHT22;33163;0.000;0.000;2023-04-25T11:06:59;19.60;51.80
47414;DHT22;33163;0.000;0.000;2023-04-25T11:09:28;19.60;51.80
47414;DHT22;33163;0.000;0.000;2023-04-25T11:11:56;19.60;51.60
47414;DHT22;33163;0.000;0.000;2023-04-25T11:14:24;19.50;51.40
47414;DHT22;33163;0.000;0.000;2023-04-25T11:16:54;19.50;51.50
47414;DHT22;33163;0.000;0.000;2023-04-25T11:19:22;19.60;51.80
47414;DHT22;33163;0.000;0.000;2023-04-25T11:21:48;19.60;51.70
47414;DHT22;33163;0.000;0.000;2023-04-25T11:24:16;19.70;51.70
47414;DHT22;33163;0.000;0.000;2023-04-25T11:26:43;19.70;51.70
47414;DHT22;33163;0.000;0.000;2023-04-25T11:29:10;19.70;51.70
47414;DHT22;33163;0.000;0.000;2023-04-25T11:31:37;19.70;51.60
47414;DHT22;33163;0.000;0.000;2023-04-25T11:34:05;19.80;51.70
47414;DHT22;33163;0.000;0.000;2023-04-25T11:36:31;19.80;51.50
47414;DHT22;33163;0.000;0.000;2023-04-25T11:38:58;19.80;51.30
47414;DHT22;33163;0.000;0.000;2023-04-25T11:41:26;19.80;51.20
47414;DHT22;33163;0.000;0.000;2023-04-25T11:43:52;19.70;50.90
47414;DHT22;33163;0.000;0.000;2023-04-25T11:46:19;19.70;51.10
47414;DHT22;33163;0.000;0.000;2023-04-25T11:48:46;19.80;51.30
47414;DHT22;33163;0.000;0.000;2023-04-25T11:51:14;19.80;51.30
47414;DHT22;33163;0.000;0.000;2023-04-25T11:53:41;19.80;51.00
47414;DHT22;33163;0.000;0.000;2023-04-25T11:56:09;19.80;51.30
47414;DHT22;33163;0.000;0.000;2023-04-25T11:58:55;19.80;51.20
47414;DHT22;33163;0.000;0.000;2023-04-25T12:01:28;19.80;51.20
47414;DHT22;33163;0.000;0.000;2023-04-25T12:03:56;19.80;50.70
47414;DHT22;33163;0.000;0.000;2023-04-25T12:06:27;19.70;50.60
47414;DHT22;33163;0.000;0.000;2023-04-25T12:09:02;19.70;50.70
47414;DHT22;33163;0.000;0.000;2023-04-25T12:11:30;19.70;50.70
47414;DHT22;33163;0.000;0.000;2023-04-25T12:14:02;19.60;50.60
47414;DHT22;33163;0.000;0.000;2023-04-25T12:16:29;19.60;50.60
47414;DHT22;33163;0.000;0.000;2023-04-25T12:18:56;19.60;50.70
47414;DHT22;33163;0.000;0.000;2023-04-25T12:21:29;19.60;50.80
47414;DHT22;33163;0.000;0.000;2023-04-25T12:24:09;19.60;50.70
47414;DHT22;33163;0.000;0.000;2023-04-25T12:26:46;19.60;50.40
47414;DHT22;33163;0.000;0.000;2023-04-25T12:29:16;19.50;50.20
47414;DHT22;33163;0.000;0.000;2023-04-25T12:31:43;19.50;50.20
47414;DHT22;33163;0.000;0.000;2023-04-25T12:34:10;19.50;50.40
47414;DHT22;33163;0.000;0.000;2023-04-25T12:36:38;19.50;50.20
47414;DHT22;33163;0.000;0.000;2023-04-25T12:39:06;19.50;50.10
47414;DHT22;33163;0.000;0.000;2023-04-25T12:41:33;19.40;49.90
47414;DHT22;33163;0.000;0.000;2023-04-25T12:44:00;19.50;50.10
47414;DHT22;33163;0.000;0.000;2023-04-25T12:46:27;19.50;50.20
47414;DHT22;33163;0.000;0.000;2023-04-25T12:48:54;19.60;50.10
47414;DHT22;33163;0.000;0.000;2023-04-25T12:51:22;19.60;49.80
47414;DHT22;33163;0.000;0.000;2023-04-25T12:53:51;19.60;49.70
47414;DHT22;33163;0.000;0.000;2023-04-25T12:56:18;19.60;49.80
47414;DHT22;33163;0.000;0.000;2023-04-25T12:58:45;19.60;49.70
47414;DHT22;33163;0.000;0.000;2023-04-25T13:01:13;19.70;49.70
47414;DHT22;33163;0.000;0.000;2023-04-25T13:03:40;19.70;49.80
47414;DHT22;33163;0.000;0.000;2023-04-25T13:06:07;19.70;49.80
47414;DHT22;33163;0.000;0.000;2023-04-25T13:08:34;19.60;49.60
47414;DHT22;33163;0.000;0.000;2023-04-25T13:11:03;19.60;49.60
47414;DHT22;33163;0.000;0.000;2023-04-25T13:13:30;19.60;49.70
47414;DHT22;33163;0.000;0.000;2023-04-25T13:15:59;19.60;49.60
47414;DHT22;33163;0.000;0.000;2023-04-25T13:18:27;19.60;49.70
47414;DHT22;33163;0.000;0.000;2023-04-25T13:20:54;19.60;49.50
47414;DHT22;33163;0.000;0.000;2023-04-25T13:23:21;19.60;49.40
47414;DHT22;33163;0.000;0.000;2023-04-25T13:25:47;19.60;49.50
47414;DHT22;33163;0.000;0.000;2023-04-25T13:28:16;19.70;49.60
47414;DHT22;33163;0.000;0.000;2023-04-25T13:30:42;19.70;49.40
47414;DHT22;33163;0.000;0.000;2023-04-25T13:33:09;19.70;49.50
47414;DHT22;33163;0.000;0.000;2023-04-25T13:35:37;19.60;49.50
47414;DHT22;33163;0.000;0.000;2023-04-25T13:38:04;19.60;49.50
47414;DHT22;33163;0.000;0.000;2023-04-25T13:40:31;19.60;49.60
47414;DHT22;33163;0.000;0.000;2023-04-25T13:42:58;19.60;50.30
47414;DHT22;33163;0.000;0.000;2023-04-25T13:45:27;19.60;49.70
47414;DHT22;33163;0.000;0.000;2023-04-25T13:47:53;19.60;49.60
47414;DHT22;33163;0.000;0.000;2023-04-25T13:50:20;19.60;49.50
47414;DHT22;33163;0.000;0.000;2023-04-25T13:52:47;19.60;49.60
47414;DHT22;33163;0.000;0.000;2023-04-25T13:55:14;19.50;49.50
47414;DHT22;33163;0.000;0.000;2023-04-25T13:57:41;19.50;49.50
47414;DHT22;33163;0.000;0.000;2023-04-25T14:00:09;19.50;49.50
47414;DHT22;33163;0.000;0.000;2023-04-25T14:02:38;19.50;49.50
47414;DHT22;33163;0.000;0.000;2023-04-25T14:05:05;19.50;49.50
47414;DHT22;33163;0.000;0.000;2023-04-25T14:07:33;19.50;49.50
47414;DHT22;33163;0.000;0.000;2023-04-25T14:10:01;19.50;49.40
47414;DHT22;33163;0.000;0.000;2023-04-25T14:12:29;19.50;49.30
47414;DHT22;33163;0.000;0.000;2023-04-25T14:14:56;19.40;49.20
47414;DHT22;33163;0.000;0.000;2023-04-25T14:17:23;19.40;49.30
47414;DHT22;33163;0.000;0.000;2023-04-25T14:19:51;19.40;49.30
47414;DHT22;33163;0.000;0.000;2023-04-25T14:22:18;19.40;49.20
47414;DHT22;33163;0.000;0.000;2023-04-25T14:24:45;19.40;49.10
47414;DHT22;33163;0.000;0.000;2023-04-25T14:27:11;19.40;49.20
47414;DHT22;33163;0.000;0.000;2023-04-25T14:29:38;19.40;49.10
47414;DHT22;33163;0.000;0.000;2023-04-25T14:32:05;19.40;49.00
47414;DHT22;33163;0.000;0.000;2023-04-25T14:34:32;19.40;48.90
47414;DHT22;33163;0.000;0.000;2023-04-25T14:37:00;19.40;49.00
47414;DHT22;33163;0.000;0.000;2023-04-25T14:39:27;19.40;48.90
47414;DHT22;33163;0.000;0.000;2023-04-25T14:41:54;19.40;48.90
47414;DHT22;33163;0.000;0.000;2023-04-25T14:44:21;19.40;48.90
47414;DHT22;33163;0.000;0.000;2023-04-25T14:46:48;19.40;48.60
47414;DHT22;33163;0.000;0.000;2023-04-25T14:49:17;19.40;48.80
47414;DHT22;33163;0.000;0.000;2023-04-25T14:51:43;19.40;48.90
47414;DHT22;33163;0.000;0.000;2023-04-25T14:54:11;19.30;48.70
47414;DHT22;33163;0.000;0.000;2023-04-25T14:56:38;19.30;48.80
47414;DHT22;33163;0.000;0.000;2023-04-25T14:59:05;19.30;48.70
47414;DHT22;33163;0.000;0.000;2023-04-25T15:01:32;19.30;48.60
47414;DHT22;33163;0.000;0.000;2023-04-25T15:03:59;19.30;48.80
47414;DHT22;33163;0.000;0.000;2023-04-25T15:06:26;19.30;49.00
47414;DHT22;33163;0.000;0.000;2023-04-25T15:08:54;19.30;48.80
47414;DHT22;33163;0.000;0.000;2023-04-25T15:11:22;19.30;48.80
47414;DHT22;33163;0.000;0.000;2023-04-25T15:13:49;19.30;48.90
47414;DHT22;33163;0.000;0.000;2023-04-25T15:16:16;19.30;48.80
47414;DHT22;33163;0.000;0.000;2023-04-25T15:18:43;19.30;48.90
47414;DHT22;33163;0.000;0.000;2023-04-25T15:21:09;19.30;48.90
47414;DHT22;33163;0.000;0.000;2023-04-25T15:23:36;19.30;48.90
47414;DHT22;33163;0.000;0.000;2023-04-25T15:26:03;19.30;49.10
47414;DHT22;33163;0.000;0.000;2023-04-25T15:28:31;19.30;49.40
47414;DHT22;33163;0.000;0.000;2023-04-25T15:30:59;19.40;49.10
47414;DHT22;33163;0.000;0.000;2023-04-25T15:33:26;19.40;48.90
47414;DHT22;33163;0.000;0.000;2023-04-25T15:35:53;19.40;48.80
47414;DHT22;33163;0.000;0.000;2023-04-25T15:38:19;19.50;48.70
47414;DHT22;33163;0.000;0.000;2023-04-25T15:40:46;19.50;48.60
47414;DHT22;33163;0.000;0.000;2023-04-25T15:43:13;19.50;48.20
47414;DHT22;33163;0.000;0.000;2023-04-25T15:45:43;19.50;48.30
47414;DHT22;33163;0.000;0.000;2023-04-25T15:48:10;19.50;48.40